createdAt,value
2022-10-29T00:09:39.092Z,100747.84
2022-10-29T00:31:25.984Z,100752.05
2022-10-29T00:53:11.969Z,100739.39
2022-10-29T01:15:09.149Z,100731.10
2022-10-29T01:36:59.482Z,100743.73
2022-10-29T01:58:47.834Z,100739.21
2022-10-29T02:20:33.722Z,100746.75
2022-10-29T02:42:19.431Z,100727.91
2022-10-29T03:04:05.326Z,100710.83
2022-10-29T03:25:56.052Z,100711.80
2022-10-29T03:47:42.474Z,100721.56
2022-10-29T04:09:28.375Z,100725.24
2022-10-29T04:31:15.200Z,100747.95
2022-10-29T04:56:06.920Z,100783.35
2022-10-29T05:17:52.850Z,100795.24
2022-10-29T05:39:38.796Z,100809.33
2022-10-29T06:01:24.552Z,100830.70
2022-10-29T06:23:10.532Z,100844.44
2022-10-29T06:44:56.202Z,100860.23
2022-10-29T07:06:41.919Z,100879.25
2022-10-29T07:28:27.740Z,100882.52
2022-10-29T07:50:13.958Z,100883.85
2022-10-29T08:11:59.771Z,100886.22
2022-10-29T08:45:05.435Z,100891.95
2022-10-29T09:07:02.804Z,100898.58
2022-10-29T09:29:15.076Z,100905.30
2022-10-29T09:51:10.712Z,100897.59
2022-10-29T10:13:01.360Z,100891.59
2022-10-29T10:34:44.322Z,100882.38
2022-10-29T10:56:27.400Z,100858.85
2022-10-29T11:18:18.361Z,100842.54
2022-10-29T11:40:05.415Z,100834.58
2022-10-29T12:01:57.618Z,100823.41
2022-10-29T12:23:54.362Z,100809.61
2022-10-29T12:46:19.079Z,100794.33
2022-10-29T13:08:26.465Z,100791.90
2022-10-29T13:30:21.182Z,100783.30
2022-10-29T13:52:11.386Z,100775.42
2022-10-29T14:13:58.746Z,100761.40
2022-10-29T14:35:41.986Z,100747.80
2022-10-29T14:57:27.920Z,100751.07
2022-10-29T15:19:15.759Z,100757.21
2022-10-29T15:41:30.748Z,100746.08
2022-10-29T16:03:16.562Z,100744.74
2022-10-29T16:24:59.581Z,100760.33
2022-10-29T16:46:42.735Z,100755.65
2022-10-29T17:26:03.566Z,100730.59
2022-10-29T17:47:49.615Z,100730.63
2022-10-29T18:09:35.501Z,100730.48
2022-10-29T18:31:21.778Z,100736.02
2022-10-29T18:53:07.614Z,100748.35
2022-10-29T19:14:53.648Z,100748.39
2022-10-29T19:36:40.731Z,100745.45
2022-10-29T19:58:28.650Z,100731.11
2022-10-29T20:20:17.304Z,100712.52
2022-10-29T20:42:03.416Z,100724.20
2022-10-29T21:03:51.471Z,100720.17
2022-10-29T21:25:37.275Z,100708.64
2022-10-29T21:47:22.962Z,100699.80
2022-10-29T22:09:10.059Z,100701.48
2022-10-29T22:31:01.914Z,100701.99
2022-10-29T22:52:47.784Z,100690.35
2022-10-29T23:14:33.460Z,100685.44
2022-10-29T23:36:20.501Z,100687.53
2022-10-29T23:58:06.493Z,100688.15
